createdAt,value
2019-03-31T00:01:52.545Z,995.56
2019-03-31T00:03:52.750Z,995.79
2019-03-31T00:05:52.770Z,995.46
2019-03-31T00:07:52.674Z,995.76
2019-03-31T00:09:52.333Z,996.03
2019-03-31T00:11:52.338Z,995.50
2019-03-31T00:13:52.399Z,995.96
2019-03-31T00:15:52.621Z,995.55
2019-03-31T00:17:52.577Z,995.56
2019-03-31T00:19:52.609Z,995.92
2019-03-31T00:21:52.357Z,995.56
2019-03-31T00:23:52.780Z,995.21
2019-03-31T00:25:52.340Z,995.80
2019-03-31T00:27:52.576Z,995.88
2019-03-31T00:29:52.521Z,995.64
2019-03-31T00:31:52.570Z,995.71
2019-03-31T00:33:52.621Z,995.89
2019-03-31T00:35:52.426Z,995.57
2019-03-31T00:37:53.066Z,995.54
2019-03-31T00:39:52.663Z,995.47
2019-03-31T00:41:52.666Z,995.94
2019-03-31T00:43:52.646Z,995.78
2019-03-31T00:45:52.495Z,995.47
2019-03-31T00:47:52.471Z,995.76
2019-03-31T00:49:52.642Z,995.97
2019-03-31T00:51:52.837Z,995.63
2019-03-31T00:53:52.616Z,995.37
2019-03-31T00:55:52.757Z,995.48
2019-03-31T00:57:52.567Z,995.46
2019-03-31T00:59:52.927Z,995.73
2019-03-31T01:01:52.355Z,995.52
2019-03-31T01:03:52.601Z,995.53
2019-03-31T01:05:52.345Z,995.84
2019-03-31T01:07:55.701Z,995.63
2019-03-31T01:09:52.647Z,995.56
2019-03-31T01:11:52.647Z,995.41
2019-03-31T01:13:52.742Z,995.76
2019-03-31T01:15:52.671Z,995.84
2019-03-31T01:17:52.689Z,995.63
2019-03-31T01:19:52.685Z,995.45
2019-03-31T01:21:52.500Z,995.70
2019-03-31T01:23:52.919Z,995.73
2019-03-31T01:25:52.557Z,995.62
2019-03-31T01:27:52.637Z,995.55
2019-03-31T01:29:52.432Z,995.43
2019-03-31T01:31:52.618Z,995.51
2019-03-31T01:33:52.463Z,995.52
2019-03-31T01:35:52.460Z,995.44
2019-03-31T01:37:52.703Z,995.29
2019-03-31T01:39:52.632Z,995.44
2019-03-31T01:41:52.522Z,995.50
2019-03-31T01:43:52.732Z,995.54
2019-03-31T01:45:53.566Z,995.58
2019-03-31T01:47:52.509Z,995.51
2019-03-31T01:49:52.763Z,995.32
2019-03-31T01:51:53.191Z,995.90
2019-03-31T01:53:52.379Z,995.64
2019-03-31T01:55:52.796Z,995.67
2019-03-31T01:57:52.561Z,995.71
2019-03-31T01:59:52.618Z,995.66
2019-03-31T02:02:03.500Z,995.97
2019-03-31T02:03:52.646Z,995.51
2019-03-31T02:05:52.652Z,995.50
2019-03-31T02:07:52.538Z,995.77
2019-03-31T02:09:52.526Z,995.84
2019-03-31T02:11:53.918Z,995.52
2019-03-31T02:13:52.581Z,995.63
2019-03-31T02:15:52.557Z,995.47
2019-03-31T02:17:52.554Z,995.74
2019-03-31T02:19:52.634Z,995.63
2019-03-31T02:21:52.863Z,996.00
2019-03-31T02:23:52.664Z,995.95
2019-03-31T02:25:52.669Z,995.79
2019-03-31T02:27:52.897Z,995.36
2019-03-31T02:29:52.700Z,995.56
2019-03-31T02:31:52.719Z,995.64
2019-03-31T02:33:52.720Z,995.53
2019-03-31T02:35:52.880Z,995.65
2019-03-31T02:37:52.744Z,995.62
2019-03-31T02:39:52.752Z,995.68
2019-03-31T02:41:52.332Z,995.62
2019-03-31T02:43:52.539Z,995.71
2019-03-31T02:45:52.523Z,995.48
2019-03-31T02:47:52.394Z,995.48
2019-03-31T02:49:52.715Z,995.79
2019-03-31T02:51:52.733Z,995.76
2019-03-31T02:53:52.729Z,995.94
2019-03-31T02:55:52.748Z,995.73
2019-03-31T02:57:52.677Z,995.42
2019-03-31T02:59:52.684Z,995.74
2019-03-31T03:01:52.785Z,995.46
2019-03-31T03:03:52.799Z,995.67
2019-03-31T03:05:52.566Z,995.53
2019-03-31T03:07:52.716Z,995.58
2019-03-31T03:09:52.610Z,995.58
2019-03-31T03:11:52.482Z,995.53
2019-03-31T03:13:52.752Z,995.71
2019-03-31T03:15:52.773Z,995.23
2019-03-31T03:17:52.467Z,995.66
2019-03-31T03:19:52.626Z,995.52
2019-03-31T03:21:52.798Z,995.56
2019-03-31T03:23:52.615Z,995.35
2019-03-31T03:25:56.237Z,995.52
2019-03-31T03:27:52.469Z,995.54
2019-03-31T03:29:52.841Z,995.45
2019-03-31T03:31:52.761Z,995.43
2019-03-31T03:33:52.418Z,995.31
2019-03-31T03:35:52.676Z,995.44
2019-03-31T03:37:52.483Z,995.63
2019-03-31T03:39:52.442Z,995.70
2019-03-31T03:41:52.714Z,995.45
2019-03-31T03:43:55.306Z,995.66
2019-03-31T03:45:52.527Z,995.43
2019-03-31T03:47:52.543Z,995.46
2019-03-31T03:49:52.830Z,995.46
2019-03-31T03:51:52.466Z,995.53
2019-03-31T03:53:52.446Z,995.74
2019-03-31T03:55:52.500Z,995.73
2019-03-31T03:57:52.909Z,995.84
2019-03-31T03:59:52.596Z,995.74
2019-03-31T04:01:52.947Z,995.49
2019-03-31T04:03:52.532Z,995.65
2019-03-31T04:05:52.749Z,995.40
2019-03-31T04:07:52.533Z,995.58
2019-03-31T04:09:52.975Z,995.90
2019-03-31T04:11:52.780Z,995.98
2019-03-31T04:13:52.737Z,995.52
2019-03-31T04:15:52.769Z,995.76
2019-03-31T04:17:52.562Z,995.56
2019-03-31T04:19:52.704Z,995.58
2019-03-31T04:21:52.748Z,995.88
2019-03-31T04:23:52.526Z,995.76
2019-03-31T04:25:52.964Z,995.47
2019-03-31T04:27:52.773Z,995.41
2019-03-31T04:29:52.789Z,995.61
2019-03-31T04:31:52.800Z,995.73
2019-03-31T04:33:53.231Z,995.67
2019-03-31T04:35:52.613Z,995.78
2019-03-31T04:37:52.524Z,995.72
2019-03-31T04:39:52.547Z,995.78
2019-03-31T04:41:52.507Z,996.02
2019-03-31T04:43:52.632Z,995.56
2019-03-31T04:45:52.683Z,996.06
2019-03-31T04:47:53.099Z,995.77
2019-03-31T04:49:52.491Z,995.59
2019-03-31T04:51:52.715Z,995.37
2019-03-31T04:53:52.673Z,995.46
2019-03-31T04:55:52.737Z,995.07
2019-03-31T04:57:52.828Z,995.48
2019-03-31T04:59:52.557Z,995.59
2019-03-31T05:01:52.872Z,995.65
2019-03-31T05:04:03.841Z,995.98
2019-03-31T05:05:53.109Z,995.67
2019-03-31T05:07:52.808Z,995.63
2019-03-31T05:09:52.813Z,995.54
2019-03-31T05:11:52.765Z,995.83
2019-03-31T05:13:52.844Z,995.78
2019-03-31T05:15:52.601Z,995.84
2019-03-31T05:17:52.755Z,996.19
2019-03-31T05:19:52.884Z,995.72
2019-03-31T05:21:52.882Z,996.12
2019-03-31T05:23:52.846Z,995.97
2019-03-31T05:25:52.715Z,995.91
2019-03-31T05:27:52.925Z,995.90
2019-03-31T05:29:52.937Z,995.79
2019-03-31T05:31:53.205Z,995.70
2019-03-31T05:33:52.955Z,996.01
2019-03-31T05:35:52.662Z,995.72
2019-03-31T05:37:52.775Z,996.06
2019-03-31T05:39:52.785Z,995.94
2019-03-31T05:41:52.795Z,995.91
2019-03-31T05:44:05.131Z,995.75
2019-03-31T05:45:52.733Z,995.80
2019-03-31T05:47:52.838Z,995.84
2019-03-31T05:49:52.642Z,996.07
2019-03-31T05:51:52.800Z,995.99
2019-03-31T05:53:52.869Z,996.19
2019-03-31T05:55:53.090Z,996.00
2019-03-31T05:57:52.795Z,995.74
2019-03-31T05:59:53.107Z,996.03
2019-03-31T06:01:52.698Z,996.13
2019-03-31T06:03:52.931Z,996.06
2019-03-31T06:05:52.736Z,995.93
2019-03-31T06:07:52.753Z,995.98
2019-03-31T06:09:52.859Z,995.68
2019-03-31T06:11:53.560Z,995.85
2019-03-31T06:13:52.901Z,995.90
2019-03-31T06:15:53.100Z,995.94
2019-03-31T06:17:52.916Z,996.15
2019-03-31T06:19:52.846Z,996.06
2019-03-31T06:21:52.841Z,995.87
2019-03-31T06:23:52.942Z,996.12
2019-03-31T06:25:52.752Z,995.86
2019-03-31T06:27:53.022Z,995.92
2019-03-31T06:29:52.674Z,995.95
2019-03-31T06:31:53.091Z,995.90
2019-03-31T06:33:52.798Z,996.04
2019-03-31T06:35:52.708Z,996.16
2019-03-31T06:37:52.670Z,996.01
2019-03-31T06:39:52.939Z,995.81
2019-03-31T06:41:52.947Z,995.81
2019-03-31T06:43:53.164Z,995.90
2019-03-31T06:45:52.766Z,995.66
2019-03-31T06:47:52.533Z,995.81
2019-03-31T06:49:52.724Z,995.64
2019-03-31T06:51:52.808Z,996.01
2019-03-31T06:53:52.864Z,995.88
2019-03-31T06:55:53.129Z,995.76
2019-03-31T06:57:52.935Z,995.82
2019-03-31T06:59:52.949Z,995.77
2019-03-31T07:01:53.174Z,995.84
2019-03-31T07:03:52.770Z,995.93
2019-03-31T07:05:52.578Z,995.77
2019-03-31T07:07:52.851Z,995.98
2019-03-31T07:09:52.741Z,995.77
2019-03-31T07:11:52.830Z,995.68
2019-03-31T07:13:52.804Z,996.11
2019-03-31T07:15:52.843Z,995.85
2019-03-31T07:17:52.952Z,996.29
2019-03-31T07:19:52.963Z,995.96
2019-03-31T07:21:52.980Z,996.25
2019-03-31T07:23:53.138Z,996.08
2019-03-31T07:25:53.008Z,995.76
2019-03-31T07:27:52.692Z,996.19
2019-03-31T07:29:52.927Z,996.20
2019-03-31T07:31:52.622Z,996.35
2019-03-31T07:33:52.637Z,996.21
2019-03-31T07:35:52.645Z,996.28
2019-03-31T07:37:52.865Z,996.26
2019-03-31T07:39:52.964Z,996.08
2019-03-31T07:41:53.262Z,996.06
2019-03-31T07:43:52.698Z,996.40
2019-03-31T07:45:55.690Z,996.23
2019-03-31T07:47:52.925Z,996.01
2019-03-31T07:49:52.608Z,996.22
2019-03-31T07:51:52.752Z,996.11
2019-03-31T07:53:52.956Z,996.24
2019-03-31T07:55:53.027Z,996.35
2019-03-31T07:57:54.559Z,996.01
2019-03-31T07:59:52.656Z,996.23
2019-03-31T08:01:52.681Z,996.42
2019-03-31T08:03:52.715Z,996.34
2019-03-31T08:05:52.727Z,996.29
2019-03-31T08:07:52.944Z,996.28
2019-03-31T08:09:52.964Z,996.39
2019-03-31T08:11:52.970Z,996.25
2019-03-31T08:13:55.294Z,996.36
2019-03-31T08:15:53.199Z,996.23
2019-03-31T08:17:52.805Z,996.27
2019-03-31T08:19:53.022Z,996.51
2019-03-31T08:21:52.769Z,996.57
2019-03-31T08:23:52.752Z,996.25
2019-03-31T08:25:53.048Z,996.40
2019-03-31T08:27:53.056Z,996.72
2019-03-31T08:30:00.390Z,996.73
2019-03-31T08:31:53.079Z,996.54
2019-03-31T08:33:52.987Z,996.60
2019-03-31T08:35:52.846Z,996.43
2019-03-31T08:37:53.035Z,996.36
2019-03-31T08:39:52.926Z,996.65
2019-03-31T08:41:53.077Z,996.41
2019-03-31T08:43:52.845Z,996.56
2019-03-31T08:45:55.600Z,996.34
2019-03-31T08:47:53.078Z,996.48
2019-03-31T08:49:53.086Z,996.59
2019-03-31T08:51:53.000Z,996.30
2019-03-31T08:53:52.776Z,996.42
2019-03-31T08:55:53.015Z,996.41
2019-03-31T08:57:53.035Z,996.62
2019-03-31T08:59:52.837Z,996.46
2019-03-31T09:01:53.029Z,996.06
2019-03-31T09:03:52.806Z,996.30
2019-03-31T09:06:01.590Z,996.34
2019-03-31T09:07:53.252Z,996.34
2019-03-31T09:09:53.202Z,996.51
2019-03-31T09:11:52.915Z,996.44
2019-03-31T09:13:53.331Z,996.33
2019-03-31T09:15:53.137Z,996.38
2019-03-31T09:17:54.305Z,996.35
2019-03-31T09:19:52.956Z,996.40
2019-03-31T09:21:52.965Z,996.33
2019-03-31T09:23:53.004Z,996.36
2019-03-31T09:25:52.786Z,996.39
2019-03-31T09:27:52.903Z,996.50
2019-03-31T09:29:52.911Z,996.41
2019-03-31T09:31:53.014Z,996.36
2019-03-31T09:33:53.020Z,996.20
2019-03-31T09:35:53.147Z,996.35
2019-03-31T09:37:52.973Z,996.39
2019-03-31T09:39:53.075Z,996.47
2019-03-31T09:41:53.096Z,996.49
2019-03-31T09:43:53.099Z,996.52
2019-03-31T09:45:53.037Z,996.35
2019-03-31T09:47:52.919Z,996.41
2019-03-31T09:49:53.133Z,996.52
2019-03-31T09:51:53.146Z,996.37
2019-03-31T09:53:53.052Z,996.53
2019-03-31T09:55:52.958Z,996.58
2019-03-31T09:57:53.177Z,996.22
2019-03-31T09:59:52.987Z,996.20
2019-03-31T10:01:53.140Z,996.43
2019-03-31T10:03:53.220Z,996.17
2019-03-31T10:05:52.814Z,996.11
2019-03-31T10:07:52.797Z,996.25
2019-03-31T10:09:53.149Z,996.14
2019-03-31T10:11:52.895Z,996.40
2019-03-31T10:13:53.066Z,996.36
2019-03-31T10:15:52.780Z,996.02
2019-03-31T10:17:53.094Z,996.16
2019-03-31T10:19:53.116Z,996.26
2019-03-31T10:21:53.115Z,996.29
2019-03-31T10:23:53.136Z,996.28
2019-03-31T10:25:53.351Z,996.48
2019-03-31T10:27:53.155Z,996.07
2019-03-31T10:29:52.959Z,996.15
2019-03-31T10:31:53.178Z,996.22
2019-03-31T10:33:53.387Z,996.36
2019-03-31T10:35:52.931Z,996.36
2019-03-31T10:37:53.211Z,996.15
2019-03-31T10:39:53.018Z,996.10
2019-03-31T10:41:53.030Z,996.30
2019-03-31T10:43:53.163Z,996.21
2019-03-31T10:45:53.261Z,996.36
2019-03-31T10:47:53.061Z,996.23
2019-03-31T10:49:52.867Z,996.08
2019-03-31T10:51:53.054Z,996.26
2019-03-31T10:53:52.992Z,995.87
2019-03-31T10:55:53.034Z,996.34
2019-03-31T10:57:53.225Z,996.10
2019-03-31T10:59:53.234Z,996.23
2019-03-31T11:01:53.376Z,996.14
2019-03-31T11:03:52.951Z,996.15
2019-03-31T11:05:53.189Z,996.12
2019-03-31T11:07:52.959Z,996.13
2019-03-31T11:09:53.197Z,996.21
2019-03-31T11:11:53.148Z,996.07
2019-03-31T11:13:53.109Z,996.34
2019-03-31T11:15:53.311Z,996.29
2019-03-31T11:17:53.179Z,996.31
2019-03-31T11:19:53.250Z,995.91
2019-03-31T11:21:53.470Z,996.14
2019-03-31T11:23:52.897Z,996.39
2019-03-31T11:25:52.946Z,996.04
2019-03-31T11:27:53.198Z,996.03
2019-03-31T11:29:53.005Z,996.17
2019-03-31T11:31:53.220Z,996.30
2019-03-31T11:33:53.267Z,996.03
2019-03-31T11:35:53.248Z,996.12
2019-03-31T11:37:53.056Z,995.87
2019-03-31T11:39:53.062Z,996.25
2019-03-31T11:41:53.426Z,996.32
2019-03-31T11:43:53.045Z,996.01
2019-03-31T11:45:53.317Z,996.17
2019-03-31T11:47:53.311Z,996.23
2019-03-31T11:49:53.543Z,996.05
2019-03-31T11:51:53.339Z,996.19
2019-03-31T11:53:53.042Z,996.08
2019-03-31T11:55:52.951Z,996.13
2019-03-31T11:57:53.176Z,996.08
2019-03-31T11:59:53.193Z,996.02
2019-03-31T12:01:53.193Z,996.14
2019-03-31T12:03:53.009Z,996.21
2019-03-31T12:05:53.218Z,996.10
2019-03-31T12:07:53.158Z,995.94
2019-03-31T12:09:53.053Z,996.15
2019-03-31T12:11:53.258Z,995.98
2019-03-31T12:13:53.222Z,996.06
2019-03-31T12:15:53.493Z,996.02
2019-03-31T12:17:53.493Z,996.05
2019-03-31T12:19:53.303Z,996.02
2019-03-31T12:21:53.318Z,995.88
2019-03-31T12:23:53.322Z,995.99
2019-03-31T12:25:53.246Z,995.75
2019-03-31T12:27:53.184Z,996.13
2019-03-31T12:29:53.215Z,995.91
2019-03-31T12:31:53.472Z,996.08
2019-03-31T12:33:53.278Z,995.73
2019-03-31T12:35:53.299Z,996.10
2019-03-31T12:37:53.313Z,995.60
2019-03-31T12:39:53.419Z,995.90
2019-03-31T12:41:53.425Z,995.75
2019-03-31T12:43:53.442Z,995.53
2019-03-31T12:45:53.044Z,995.72
2019-03-31T12:47:53.055Z,995.66
2019-03-31T12:49:53.331Z,995.51
2019-03-31T12:51:55.107Z,995.60
2019-03-31T12:53:53.306Z,995.56
2019-03-31T12:56:00.019Z,995.36
2019-03-31T12:57:53.451Z,995.69
2019-03-31T12:59:53.447Z,995.83
2019-03-31T13:01:53.382Z,995.31
2019-03-31T13:03:53.465Z,995.63
2019-03-31T13:05:53.265Z,995.18
2019-03-31T13:07:56.580Z,995.59
2019-03-31T13:09:53.296Z,995.15
2019-03-31T13:11:53.303Z,995.49
2019-03-31T13:13:53.321Z,995.12
2019-03-31T13:15:53.116Z,995.46
2019-03-31T13:17:53.334Z,995.35
2019-03-31T13:19:53.462Z,995.16
2019-03-31T13:21:53.260Z,995.36
2019-03-31T13:23:53.049Z,995.16
2019-03-31T13:25:53.283Z,995.35
2019-03-31T13:27:53.397Z,995.36
2019-03-31T13:29:53.405Z,995.15
2019-03-31T13:31:53.431Z,995.23
2019-03-31T13:33:53.329Z,995.34
2019-03-31T13:35:53.344Z,995.24
2019-03-31T13:37:53.364Z,995.07
2019-03-31T13:39:53.365Z,995.37
2019-03-31T13:41:53.380Z,994.89
2019-03-31T13:43:53.154Z,995.11
2019-03-31T13:45:53.197Z,995.46
2019-03-31T13:47:53.219Z,995.21
2019-03-31T13:49:53.425Z,995.63
2019-03-31T13:51:53.131Z,995.23
2019-03-31T13:53:53.561Z,995.33
2019-03-31T13:55:53.384Z,995.05
2019-03-31T13:57:54.220Z,995.29
2019-03-31T13:59:53.289Z,995.08
2019-03-31T14:01:53.215Z,995.17
2019-03-31T14:03:53.510Z,995.27
2019-03-31T14:05:53.430Z,994.96
2019-03-31T14:07:53.541Z,995.01
2019-03-31T14:09:53.444Z,995.09
2019-03-31T14:11:53.305Z,995.17
2019-03-31T14:13:55.984Z,995.06
2019-03-31T14:15:53.184Z,995.16
2019-03-31T14:17:53.502Z,995.18
2019-03-31T14:19:53.064Z,995.19
2019-03-31T14:21:53.315Z,995.14
2019-03-31T14:23:53.532Z,994.92
2019-03-31T14:25:53.097Z,995.08
2019-03-31T14:27:53.143Z,995.00
2019-03-31T14:29:53.360Z,995.25
2019-03-31T14:31:53.777Z,995.17
2019-03-31T14:33:53.380Z,995.30
2019-03-31T14:35:53.295Z,995.33
2019-03-31T14:37:53.224Z,995.30
2019-03-31T14:39:53.320Z,995.44
2019-03-31T14:41:53.232Z,995.45
2019-03-31T14:43:53.233Z,995.47
2019-03-31T14:45:53.248Z,995.11
2019-03-31T14:47:53.281Z,995.52
2019-03-31T14:49:53.246Z,995.42
2019-03-31T14:51:53.481Z,995.29
2019-03-31T14:53:53.411Z,995.36
2019-03-31T14:55:53.257Z,995.66
2019-03-31T14:57:53.309Z,995.36
2019-03-31T14:59:53.437Z,995.46
2019-03-31T15:01:53.351Z,995.50
2019-03-31T15:03:53.462Z,995.61
2019-03-31T15:05:53.269Z,995.49
2019-03-31T15:07:53.558Z,995.64
2019-03-31T15:09:53.293Z,995.82
2019-03-31T15:11:53.704Z,995.59
2019-03-31T15:13:53.314Z,995.54
2019-03-31T15:15:53.248Z,995.71
2019-03-31T15:17:53.336Z,995.54
2019-03-31T15:19:53.651Z,995.64
2019-03-31T15:21:53.356Z,995.54
2019-03-31T15:23:53.886Z,995.76
2019-03-31T15:25:53.699Z,995.70
2019-03-31T15:27:53.287Z,995.44
2019-03-31T15:29:53.309Z,995.32
2019-03-31T15:31:53.524Z,995.59
2019-03-31T15:33:53.230Z,995.66
2019-03-31T15:35:53.136Z,995.69
2019-03-31T15:37:53.143Z,995.45
2019-03-31T15:39:53.372Z,995.53
2019-03-31T15:41:53.271Z,995.61
2019-03-31T15:43:53.629Z,995.74
2019-03-31T15:45:53.434Z,995.86
2019-03-31T15:47:53.203Z,995.57
2019-03-31T15:49:53.336Z,995.92
2019-03-31T15:51:53.536Z,995.55
2019-03-31T15:53:53.451Z,995.40
2019-03-31T15:55:53.461Z,995.60
2019-03-31T15:57:53.264Z,995.59
2019-03-31T15:59:53.480Z,995.63
2019-03-31T16:01:53.395Z,995.75
2019-03-31T16:03:53.517Z,995.66
2019-03-31T16:05:53.317Z,995.70
2019-03-31T16:07:53.607Z,995.68
2019-03-31T16:09:54.571Z,995.80
2019-03-31T16:11:54.229Z,996.03
2019-03-31T16:13:53.155Z,995.41
2019-03-31T16:15:53.287Z,995.69
2019-03-31T16:17:53.183Z,995.69
2019-03-31T16:19:53.429Z,995.74
2019-03-31T16:21:53.512Z,995.63
2019-03-31T16:23:53.632Z,995.91
2019-03-31T16:25:53.345Z,995.63
2019-03-31T16:27:53.349Z,995.83
2019-03-31T16:29:53.573Z,995.85
2019-03-31T16:31:53.473Z,995.89
2019-03-31T16:33:53.482Z,995.76
2019-03-31T16:35:53.293Z,995.78
2019-03-31T16:37:53.442Z,996.12
2019-03-31T16:39:53.239Z,996.02
2019-03-31T16:41:53.523Z,995.62
2019-03-31T16:43:53.284Z,995.73
2019-03-31T16:45:53.391Z,996.24
2019-03-31T16:47:53.463Z,995.56
2019-03-31T16:49:53.477Z,996.17
2019-03-31T16:51:53.695Z,995.67
2019-03-31T16:53:53.504Z,995.90
2019-03-31T16:55:53.307Z,995.90
2019-03-31T16:57:53.524Z,995.70
2019-03-31T16:59:53.432Z,995.64
2019-03-31T17:01:53.551Z,995.73
2019-03-31T17:03:53.362Z,996.13
2019-03-31T17:05:53.562Z,995.78
2019-03-31T17:07:53.591Z,995.58
2019-03-31T17:09:53.794Z,996.34
2019-03-31T17:11:54.587Z,996.10
2019-03-31T17:13:53.751Z,996.13
2019-03-31T17:15:53.329Z,996.21
2019-03-31T17:17:53.640Z,996.23
2019-03-31T17:19:53.256Z,995.98
2019-03-31T17:21:53.467Z,995.88
2019-03-31T17:23:53.268Z,996.15
2019-03-31T17:25:53.693Z,996.31
2019-03-31T17:27:53.493Z,996.14
2019-03-31T17:29:53.303Z,996.02
2019-03-31T17:31:53.512Z,996.20
2019-03-31T17:33:53.227Z,996.21
2019-03-31T17:35:53.236Z,996.26
2019-03-31T17:37:53.518Z,995.69
2019-03-31T17:40:05.401Z,996.30
2019-03-31T17:41:53.539Z,996.42
2019-03-31T17:43:53.690Z,996.31
2019-03-31T17:45:53.809Z,996.32
2019-03-31T17:47:53.511Z,996.43
2019-03-31T17:49:53.528Z,996.35
2019-03-31T17:51:53.327Z,996.69
2019-03-31T17:53:53.344Z,996.74
2019-03-31T17:55:53.758Z,996.35
2019-03-31T17:57:53.648Z,996.51
2019-03-31T17:59:53.478Z,996.77
2019-03-31T18:01:53.365Z,996.72
2019-03-31T18:03:53.595Z,996.61
2019-03-31T18:05:53.438Z,996.48
2019-03-31T18:07:53.310Z,996.39
2019-03-31T18:09:53.470Z,996.54
2019-03-31T18:11:53.558Z,996.69
2019-03-31T18:13:53.599Z,996.98
2019-03-31T18:15:53.372Z,996.73
2019-03-31T18:17:53.855Z,996.73
2019-03-31T18:19:53.391Z,996.79
2019-03-31T18:21:53.402Z,996.62
2019-03-31T18:23:53.383Z,996.60
2019-03-31T18:25:53.836Z,996.60
2019-03-31T18:27:53.570Z,997.13
2019-03-31T18:29:53.613Z,996.71
2019-03-31T18:31:53.668Z,996.63
2019-03-31T18:33:53.479Z,996.67
2019-03-31T18:35:53.692Z,997.03
2019-03-31T18:37:53.455Z,996.96
2019-03-31T18:39:53.447Z,997.11
2019-03-31T18:41:53.314Z,997.28
2019-03-31T18:43:54.042Z,997.04
2019-03-31T18:45:53.448Z,996.87
2019-03-31T18:47:53.632Z,997.07
2019-03-31T18:49:53.469Z,997.23
2019-03-31T18:51:54.320Z,997.26
2019-03-31T18:53:53.595Z,997.03
2019-03-31T18:55:53.404Z,997.01
2019-03-31T18:57:53.510Z,997.25
2019-03-31T18:59:53.532Z,997.32
2019-03-31T19:01:53.541Z,997.09
2019-03-31T19:03:53.649Z,997.18
2019-03-31T19:05:53.982Z,997.30
2019-03-31T19:07:53.572Z,997.32
2019-03-31T19:09:53.595Z,997.46
2019-03-31T19:11:53.603Z,997.38
2019-03-31T19:13:55.700Z,996.99
2019-03-31T19:15:53.636Z,997.13
2019-03-31T19:17:53.679Z,997.23
2019-03-31T19:19:53.512Z,997.14
2019-03-31T19:21:53.610Z,997.65
2019-03-31T19:23:53.669Z,997.39
2019-03-31T19:25:53.611Z,997.20
2019-03-31T19:27:53.440Z,997.53
2019-03-31T19:29:53.451Z,997.20
2019-03-31T19:31:53.610Z,997.75
2019-03-31T19:33:53.611Z,997.70
2019-03-31T19:35:53.639Z,997.59
2019-03-31T19:37:53.429Z,997.57
2019-03-31T19:39:53.663Z,997.75
2019-03-31T19:41:53.675Z,997.57
2019-03-31T19:43:53.894Z,997.35
2019-03-31T19:45:53.690Z,997.81
2019-03-31T19:47:53.501Z,997.72
2019-03-31T19:49:53.633Z,997.72
2019-03-31T19:51:53.533Z,997.80
2019-03-31T19:53:53.544Z,997.78
2019-03-31T19:56:06.972Z,997.71
2019-03-31T19:57:53.530Z,997.96
2019-03-31T19:59:53.476Z,997.51
2019-03-31T20:01:53.694Z,997.63
2019-03-31T20:03:53.496Z,998.18
2019-03-31T20:05:53.708Z,997.64
2019-03-31T20:07:53.523Z,997.65
2019-03-31T20:09:53.739Z,997.90
2019-03-31T20:11:53.540Z,997.95
2019-03-31T20:13:53.521Z,997.99
2019-03-31T20:15:53.681Z,997.76
2019-03-31T20:17:53.538Z,997.68
2019-03-31T20:19:53.596Z,997.78
2019-03-31T20:21:53.915Z,997.79
2019-03-31T20:23:53.590Z,998.13
2019-03-31T20:25:53.509Z,998.04
2019-03-31T20:27:53.644Z,997.78
2019-03-31T20:29:53.605Z,997.91
2019-03-31T20:31:53.569Z,997.95
2019-03-31T20:33:53.709Z,997.81
2019-03-31T20:35:54.094Z,998.37
2019-03-31T20:37:53.781Z,997.94
2019-03-31T20:39:57.003Z,998.30
2019-03-31T20:41:53.619Z,998.05
2019-03-31T20:43:53.829Z,998.03
2019-03-31T20:45:53.633Z,998.15
2019-03-31T20:47:53.551Z,998.20
2019-03-31T20:49:53.572Z,998.14
2019-03-31T20:51:53.577Z,998.04
2019-03-31T20:53:53.608Z,998.09
2019-03-31T20:55:53.514Z,998.16
2019-03-31T20:57:53.371Z,998.25
2019-03-31T20:59:53.526Z,997.87
2019-03-31T21:01:53.630Z,998.22
2019-03-31T21:03:53.663Z,998.26
2019-03-31T21:05:56.631Z,997.91
2019-03-31T21:07:53.665Z,998.02
2019-03-31T21:09:53.505Z,998.21
2019-03-31T21:11:53.643Z,997.98
2019-03-31T21:13:56.758Z,997.92
2019-03-31T21:15:53.721Z,998.33
2019-03-31T21:17:53.685Z,998.16
2019-03-31T21:19:53.495Z,998.33
2019-03-31T21:21:53.751Z,998.26
2019-03-31T21:23:53.664Z,998.36
2019-03-31T21:25:53.678Z,998.10
2019-03-31T21:27:53.584Z,998.41
2019-03-31T21:29:53.590Z,997.97
2019-03-31T21:31:53.602Z,998.49
2019-03-31T21:33:53.590Z,998.40
2019-03-31T21:35:53.397Z,998.36
2019-03-31T21:37:53.537Z,998.55
2019-03-31T21:39:53.671Z,998.24
2019-03-31T21:41:53.660Z,998.36
2019-03-31T21:43:53.515Z,998.45
2019-03-31T21:45:53.373Z,998.09
2019-03-31T21:47:53.553Z,998.10
2019-03-31T21:49:53.613Z,998.33
2019-03-31T21:51:53.827Z,998.25
2019-03-31T21:53:53.643Z,998.48
2019-03-31T21:55:53.743Z,998.31
2019-03-31T21:57:53.725Z,998.24
2019-03-31T21:59:53.560Z,998.18
2019-03-31T22:01:53.506Z,998.19
2019-03-31T22:03:53.368Z,998.34
2019-03-31T22:05:53.599Z,998.11
2019-03-31T22:07:53.544Z,998.52
2019-03-31T22:09:53.429Z,998.29
2019-03-31T22:11:53.530Z,998.31
2019-03-31T22:13:53.817Z,998.47
2019-03-31T22:15:53.657Z,998.13
2019-03-31T22:17:53.607Z,998.32
2019-03-31T22:19:53.618Z,998.59
2019-03-31T22:21:53.996Z,998.48
2019-03-31T22:23:58.158Z,998.64
2019-03-31T22:25:53.769Z,998.20
2019-03-31T22:27:53.627Z,997.95
2019-03-31T22:29:53.640Z,998.27
2019-03-31T22:31:54.019Z,998.18
2019-03-31T22:33:53.589Z,998.28
2019-03-31T22:35:53.677Z,998.03
2019-03-31T22:37:53.698Z,998.43
2019-03-31T22:39:53.528Z,998.22
2019-03-31T22:41:53.810Z,997.91
2019-03-31T22:43:53.961Z,998.26
2019-03-31T22:45:53.628Z,998.00
2019-03-31T22:47:53.639Z,998.06
2019-03-31T22:49:53.811Z,997.99
2019-03-31T22:51:56.426Z,998.33
2019-03-31T22:53:53.681Z,998.16
2019-03-31T22:55:53.689Z,998.09
2019-03-31T22:57:53.699Z,997.99
2019-03-31T22:59:53.822Z,998.01
2019-03-31T23:01:53.728Z,997.83
2019-03-31T23:03:53.735Z,997.86
2019-03-31T23:05:53.751Z,997.88
2019-03-31T23:07:53.476Z,997.81
2019-03-31T23:09:53.694Z,998.25
2019-03-31T23:11:53.657Z,997.98
2019-03-31T23:13:53.653Z,998.37
2019-03-31T23:15:53.916Z,997.91
2019-03-31T23:17:53.665Z,997.67
2019-03-31T23:19:53.728Z,997.56
2019-03-31T23:21:53.480Z,997.83
2019-03-31T23:23:53.756Z,998.20
2019-03-31T23:25:53.767Z,997.93
2019-03-31T23:27:53.772Z,997.79
2019-03-31T23:29:53.739Z,998.00
2019-03-31T23:31:53.594Z,997.97
2019-03-31T23:33:53.755Z,998.08
2019-03-31T23:35:53.824Z,998.08
2019-03-31T23:37:53.517Z,997.97
2019-03-31T23:39:53.432Z,997.81
2019-03-31T23:41:53.659Z,998.06
2019-03-31T23:43:53.668Z,997.78
2019-03-31T23:45:53.886Z,997.83
2019-03-31T23:47:53.904Z,998.12
2019-03-31T23:49:54.009Z,997.77
2019-03-31T23:51:53.817Z,997.84
2019-03-31T23:53:53.622Z,998.13
2019-03-31T23:55:53.746Z,997.73
2019-03-31T23:57:53.751Z,997.97
2019-03-31T23:59:53.839Z,997.81
